sensor_id;sensor_type;location;lat;lon;timestamp;temperature;humidity
54518;DHT22;40423;53.176;6.002;2023-03-14T00:01:53;10.10;99.90
54518;DHT22;40423;53.176;6.002;2023-03-14T00:04:19;10.10;99.90
54518;DHT22;40423;53.176;6.002;2023-03-14T00:06:45;10.10;99.90
54518;DHT22;40423;53.176;6.002;2023-03-14T00:09:13;10.10;99.90
54518;DHT22;40423;53.176;6.002;2023-03-14T00:11:38;10.20;99.90
54518;DHT22;40423;53.176;6.002;2023-03-14T00:14:04;10.20;99.90
54518;DHT22;40423;53.176;6.002;2023-03-14T00:16:30;10.30;99.90
54518;DHT22;40423;53.176;6.002;2023-03-14T00:18:57;10.30;99.90
54518;DHT22;40423;53.176;6.002;2023-03-14T00:21:23;10.30;99.90
54518;DHT22;40423;53.176;6.002;2023-03-14T00:24:01;10.30;99.90
54518;DHT22;40423;53.176;6.002;2023-03-14T00:26:27;10.30;99.90
54518;DHT22;40423;53.176;6.002;2023-03-14T00:28:53;10.30;99.90
54518;DHT22;40423;53.176;6.002;2023-03-14T00:31:20;10.30;99.90
54518;DHT22;40423;53.176;6.002;2023-03-14T00:33:45;10.30;99.90
54518;DHT22;40423;53.176;6.002;2023-03-14T00:36:16;10.30;99.90
54518;DHT22;40423;53.176;6.002;2023-03-14T00:38:43;10.30;99.90
54518;DHT22;40423;53.176;6.002;2023-03-14T00:41:12;10.30;99.90
54518;DHT22;40423;53.176;6.002;2023-03-14T00:43:38;10.30;99.90
54518;DHT22;40423;53.176;6.002;2023-03-14T00:46:04;10.30;99.90
54518;DHT22;40423;53.176;6.002;2023-03-14T00:48:30;10.30;99.90
54518;DHT22;40423;53.176;6.002;2023-03-14T00:50:56;10.30;99.90
54518;DHT22;40423;53.176;6.002;2023-03-14T00:53:22;10.20;99.90
54518;DHT22;40423;53.176;6.002;2023-03-14T00:55:48;10.20;99.90
54518;DHT22;40423;53.176;6.002;2023-03-14T00:58:15;10.10;99.90
54518;DHT22;40423;53.176;6.002;2023-03-14T01:00:42;10.10;99.90
54518;DHT22;40423;53.176;6.002;2023-03-14T01:03:09;10.10;99.90
54518;DHT22;40423;53.176;6.002;2023-03-14T01:05:35;10.00;99.90
54518;DHT22;40423;53.176;6.002;2023-03-14T01:08:01;10.00;99.90
54518;DHT22;40423;53.176;6.002;2023-03-14T01:10:27;10.00;99.90
54518;DHT22;40423;53.176;6.002;2023-03-14T01:12:53;9.90;99.90
54518;DHT22;40423;53.176;6.002;2023-03-14T01:15:19;9.90;99.90
54518;DHT22;40423;53.176;6.002;2023-03-14T01:17:45;10.00;99.90
54518;DHT22;40423;53.176;6.002;2023-03-14T01:20:13;10.00;99.90
54518;DHT22;40423;53.176;6.002;2023-03-14T01:22:39;10.00;99.90
54518;DHT22;40423;53.176;6.002;2023-03-14T01:25:07;10.00;99.90
54518;DHT22;40423;53.176;6.002;2023-03-14T01:27:33;9.90;99.90
54518;DHT22;40423;53.176;6.002;2023-03-14T01:29:59;9.90;99.90
54518;DHT22;40423;53.176;6.002;2023-03-14T01:32:25;10.00;99.90
54518;DHT22;40423;53.176;6.002;2023-03-14T01:34:51;10.00;99.90
54518;DHT22;40423;53.176;6.002;2023-03-14T01:37:17;10.00;99.90
54518;DHT22;40423;53.176;6.002;2023-03-14T01:39:42;10.00;99.90
54518;DHT22;40423;53.176;6.002;2023-03-14T01:42:08;10.00;99.90
54518;DHT22;40423;53.176;6.002;2023-03-14T01:44:54;9.90;99.90
54518;DHT22;40423;53.176;6.002;2023-03-14T01:47:20;9.90;99.90
54518;DHT22;40423;53.176;6.002;2023-03-14T01:49:52;9.90;99.90
54518;DHT22;40423;53.176;6.002;2023-03-14T01:52:32;9.90;99.90
54518;DHT22;40423;53.176;6.002;2023-03-14T01:55:06;9.90;99.90
54518;DHT22;40423;53.176;6.002;2023-03-14T01:57:35;9.90;99.90
54518;DHT22;40423;53.176;6.002;2023-03-14T02:00:13;9.90;99.90
54518;DHT22;40423;53.176;6.002;2023-03-14T02:02:43;9.90;99.90
54518;DHT22;40423;53.176;6.002;2023-03-14T02:05:10;9.90;99.90
54518;DHT22;40423;53.176;6.002;2023-03-14T02:10:19;9.80;99.90
54518;DHT22;40423;53.176;6.002;2023-03-14T02:12:48;9.80;99.90
54518;DHT22;40423;53.176;6.002;2023-03-14T02:15:14;9.80;99.90
54518;DHT22;40423;53.176;6.002;2023-03-14T02:17:43;9.80;99.90
54518;DHT22;40423;53.176;6.002;2023-03-14T02:22:38;9.70;99.90
54518;DHT22;40423;53.176;6.002;2023-03-14T02:27:41;9.70;99.90
54518;DHT22;40423;53.176;6.002;2023-03-14T02:30:18;9.70;99.90
54518;DHT22;40423;53.176;6.002;2023-03-14T02:32:48;9.70;99.90
54518;DHT22;40423;53.176;6.002;2023-03-14T02:35:19;9.60;99.90
54518;DHT22;40423;53.176;6.002;2023-03-14T02:37:59;9.60;99.90
54518;DHT22;40423;53.176;6.002;2023-03-14T02:40:26;9.60;99.90
54518;DHT22;40423;53.176;6.002;2023-03-14T02:42:52;9.60;99.90
54518;DHT22;40423;53.176;6.002;2023-03-14T02:47:49;9.60;99.90
54518;DHT22;40423;53.176;6.002;2023-03-14T02:50:20;9.60;99.90
54518;DHT22;40423;53.176;6.002;2023-03-14T02:52:46;9.60;99.90
54518;DHT22;40423;53.176;6.002;2023-03-14T02:55:12;9.60;99.90
54518;DHT22;40423;53.176;6.002;2023-03-14T02:57:38;9.60;99.90
54518;DHT22;40423;53.176;6.002;2023-03-14T03:00:04;9.60;99.90
54518;DHT22;40423;53.176;6.002;2023-03-14T03:02:30;9.60;99.90
54518;DHT22;40423;53.176;6.002;2023-03-14T03:04:56;9.50;99.90
54518;DHT22;40423;53.176;6.002;2023-03-14T03:07:22;9.50;99.90
54518;DHT22;40423;53.176;6.002;2023-03-14T03:09:48;9.50;99.90
54518;DHT22;40423;53.176;6.002;2023-03-14T03:12:13;9.50;99.90
54518;DHT22;40423;53.176;6.002;2023-03-14T03:14:39;9.50;99.90
54518;DHT22;40423;53.176;6.002;2023-03-14T03:17:05;9.40;99.90
54518;DHT22;40423;53.176;6.002;2023-03-14T03:19:33;9.40;99.90
54518;DHT22;40423;53.176;6.002;2023-03-14T03:21:59;9.40;99.90
54518;DHT22;40423;53.176;6.002;2023-03-14T03:24:25;9.40;99.90
54518;DHT22;40423;53.176;6.002;2023-03-14T03:26:51;9.40;99.90
54518;DHT22;40423;53.176;6.002;2023-03-14T03:29:17;9.30;99.90
54518;DHT22;40423;53.176;6.002;2023-03-14T03:31:43;9.30;99.90
54518;DHT22;40423;53.176;6.002;2023-03-14T03:34:14;9.30;99.90
54518;DHT22;40423;53.176;6.002;2023-03-14T03:36:40;9.30;99.90
54518;DHT22;40423;53.176;6.002;2023-03-14T03:39:06;9.30;99.90
54518;DHT22;40423;53.176;6.002;2023-03-14T03:41:32;9.20;99.90
54518;DHT22;40423;53.176;6.002;2023-03-14T03:43:58;9.20;99.90
54518;DHT22;40423;53.176;6.002;2023-03-14T03:46:24;9.20;99.90
54518;DHT22;40423;53.176;6.002;2023-03-14T03:48:57;9.20;99.90
54518;DHT22;40423;53.176;6.002;2023-03-14T03:51:23;9.20;99.90
54518;DHT22;40423;53.176;6.002;2023-03-14T03:53:49;9.20;99.90
54518;DHT22;40423;53.176;6.002;2023-03-14T03:56:15;9.20;99.90
54518;DHT22;40423;53.176;6.002;2023-03-14T03:58:41;9.30;99.90
54518;DHT22;40423;53.176;6.002;2023-03-14T04:01:08;9.30;99.90
54518;DHT22;40423;53.176;6.002;2023-03-14T04:03:34;9.20;99.90
54518;DHT22;40423;53.176;6.002;2023-03-14T04:06:06;9.30;99.90
54518;DHT22;40423;53.176;6.002;2023-03-14T04:08:32;9.30;99.90
54518;DHT22;40423;53.176;6.002;2023-03-14T04:10:59;9.30;99.90
54518;DHT22;40423;53.176;6.002;2023-03-14T04:13:26;9.30;99.90
54518;DHT22;40423;53.176;6.002;2023-03-14T04:15:52;9.30;99.90
54518;DHT22;40423;53.176;6.002;2023-03-14T04:18:18;9.30;99.90
54518;DHT22;40423;53.176;6.002;2023-03-14T04:20:44;9.30;99.90
54518;DHT22;40423;53.176;6.002;2023-03-14T04:23:10;9.30;99.90
54518;DHT22;40423;53.176;6.002;2023-03-14T04:25:35;9.30;99.90
54518;DHT22;40423;53.176;6.002;2023-03-14T04:28:02;9.40;99.90
54518;DHT22;40423;53.176;6.002;2023-03-14T04:30:29;9.40;99.90
54518;DHT22;40423;53.176;6.002;2023-03-14T04:32:55;9.40;99.90
54518;DHT22;40423;53.176;6.002;2023-03-14T04:35:21;9.40;99.90
54518;DHT22;40423;53.176;6.002;2023-03-14T04:37:46;9.40;99.90
54518;DHT22;40423;53.176;6.002;2023-03-14T04:40:15;9.40;99.90
54518;DHT22;40423;53.176;6.002;2023-03-14T04:42:41;9.30;99.90
54518;DHT22;40423;53.176;6.002;2023-03-14T04:45:07;9.30;99.90
54518;DHT22;40423;53.176;6.002;2023-03-14T04:47:33;9.30;99.90
54518;DHT22;40423;53.176;6.002;2023-03-14T04:50:00;9.20;99.90
54518;DHT22;40423;53.176;6.002;2023-03-14T04:52:26;9.20;99.90
54518;DHT22;40423;53.176;6.002;2023-03-14T04:54:52;9.20;99.90
54518;DHT22;40423;53.176;6.002;2023-03-14T04:57:18;9.20;99.90
54518;DHT22;40423;53.176;6.002;2023-03-14T04:59:43;9.20;99.90
54518;DHT22;40423;53.176;6.002;2023-03-14T05:02:09;9.20;99.90
54518;DHT22;40423;53.176;6.002;2023-03-14T05:04:35;9.20;99.90
54518;DHT22;40423;53.176;6.002;2023-03-14T05:07:01;9.20;99.90
54518;DHT22;40423;53.176;6.002;2023-03-14T05:09:27;9.20;99.90
54518;DHT22;40423;53.176;6.002;2023-03-14T05:11:52;9.20;99.90
54518;DHT22;40423;53.176;6.002;2023-03-14T05:14:18;9.20;99.90
54518;DHT22;40423;53.176;6.002;2023-03-14T05:16:44;9.20;99.90
54518;DHT22;40423;53.176;6.002;2023-03-14T05:19:11;9.20;99.90
54518;DHT22;40423;53.176;6.002;2023-03-14T05:21:37;9.20;99.90
54518;DHT22;40423;53.176;6.002;2023-03-14T05:24:03;9.20;99.90
54518;DHT22;40423;53.176;6.002;2023-03-14T05:26:29;9.20;99.90
54518;DHT22;40423;53.176;6.002;2023-03-14T05:28:55;9.20;99.90
54518;DHT22;40423;53.176;6.002;2023-03-14T05:31:20;9.20;99.90
54518;DHT22;40423;53.176;6.002;2023-03-14T05:33:46;9.20;99.90
54518;DHT22;40423;53.176;6.002;2023-03-14T05:36:12;9.20;99.90
54518;DHT22;40423;53.176;6.002;2023-03-14T05:38:38;9.20;99.90
54518;DHT22;40423;53.176;6.002;2023-03-14T05:41:04;9.20;99.90
54518;DHT22;40423;53.176;6.002;2023-03-14T05:43:29;9.20;99.90
54518;DHT22;40423;53.176;6.002;2023-03-14T05:45:55;9.20;99.90
54518;DHT22;40423;53.176;6.002;2023-03-14T05:48:21;9.20;99.90
54518;DHT22;40423;53.176;6.002;2023-03-14T05:50:47;9.20;99.90
54518;DHT22;40423;53.176;6.002;2023-03-14T05:53:13;9.10;99.90
54518;DHT22;40423;53.176;6.002;2023-03-14T05:55:40;9.10;99.90
54518;DHT22;40423;53.176;6.002;2023-03-14T05:58:06;9.10;99.90
54518;DHT22;40423;53.176;6.002;2023-03-14T06:00:32;9.20;99.90
54518;DHT22;40423;53.176;6.002;2023-03-14T06:02:58;9.10;99.90
54518;DHT22;40423;53.176;6.002;2023-03-14T06:05:23;8.90;99.90
54518;DHT22;40423;53.176;6.002;2023-03-14T06:07:49;8.30;99.90
54518;DHT22;40423;53.176;6.002;2023-03-14T06:12:52;7.70;99.90
54518;DHT22;40423;53.176;6.002;2023-03-14T06:15:22;7.50;99.90
54518;DHT22;40423;53.176;6.002;2023-03-14T06:18:02;7.30;99.90
54518;DHT22;40423;53.176;6.002;2023-03-14T06:20:58;7.20;99.90
54518;DHT22;40423;53.176;6.002;2023-03-14T06:23:37;6.90;99.90
54518;DHT22;40423;53.176;6.002;2023-03-14T06:26:17;6.80;99.90
54518;DHT22;40423;53.176;6.002;2023-03-14T06:29:31;6.70;99.90
54518;DHT22;40423;53.176;6.002;2023-03-14T06:32:00;6.60;99.90
54518;DHT22;40423;53.176;6.002;2023-03-14T06:34:25;6.50;99.90
54518;DHT22;40423;53.176;6.002;2023-03-14T06:36:51;6.30;99.90
54518;DHT22;40423;53.176;6.002;2023-03-14T06:39:17;6.10;99.90
54518;DHT22;40423;53.176;6.002;2023-03-14T06:41:42;6.10;99.90
54518;DHT22;40423;53.176;6.002;2023-03-14T06:44:08;6.00;99.90
54518;DHT22;40423;53.176;6.002;2023-03-14T06:46:34;5.90;99.90
54518;DHT22;40423;53.176;6.002;2023-03-14T06:48:59;5.80;99.90
54518;DHT22;40423;53.176;6.002;2023-03-14T06:51:25;5.70;99.90
54518;DHT22;40423;53.176;6.002;2023-03-14T06:53:51;5.70;99.90
54518;DHT22;40423;53.176;6.002;2023-03-14T06:56:17;5.70;99.90
54518;DHT22;40423;53.176;6.002;2023-03-14T06:58:42;5.60;99.90
54518;DHT22;40423;53.176;6.002;2023-03-14T07:01:25;5.60;99.90
54518;DHT22;40423;53.176;6.002;2023-03-14T07:03:51;5.60;99.90
54518;DHT22;40423;53.176;6.002;2023-03-14T07:06:17;5.60;99.90
54518;DHT22;40423;53.176;6.002;2023-03-14T07:08:42;5.60;99.90
54518;DHT22;40423;53.176;6.002;2023-03-14T07:11:08;5.60;99.90
54518;DHT22;40423;53.176;6.002;2023-03-14T07:13:37;5.50;99.90
54518;DHT22;40423;53.176;6.002;2023-03-14T07:16:03;5.60;99.90
54518;DHT22;40423;53.176;6.002;2023-03-14T07:18:29;5.60;99.90
54518;DHT22;40423;53.176;6.002;2023-03-14T07:20:54;5.60;99.90
54518;DHT22;40423;53.176;6.002;2023-03-14T07:23:20;5.60;99.90
54518;DHT22;40423;53.176;6.002;2023-03-14T07:25:46;5.60;99.90
54518;DHT22;40423;53.176;6.002;2023-03-14T07:28:11;5.60;99.90
54518;DHT22;40423;53.176;6.002;2023-03-14T07:30:37;5.60;99.90
54518;DHT22;40423;53.176;6.002;2023-03-14T07:33:03;5.60;99.90
54518;DHT22;40423;53.176;6.002;2023-03-14T07:35:29;5.60;99.90
54518;DHT22;40423;53.176;6.002;2023-03-14T07:37:54;5.60;99.90
54518;DHT22;40423;53.176;6.002;2023-03-14T07:40:20;5.60;99.90
54518;DHT22;40423;53.176;6.002;2023-03-14T07:42:46;5.60;99.90
54518;DHT22;40423;53.176;6.002;2023-03-14T07:45:12;5.60;99.90
54518;DHT22;40423;53.176;6.002;2023-03-14T07:47:37;5.60;99.90
54518;DHT22;40423;53.176;6.002;2023-03-14T07:50:05;5.70;99.90
54518;DHT22;40423;53.176;6.002;2023-03-14T07:52:31;5.70;99.90
54518;DHT22;40423;53.176;6.002;2023-03-14T07:54:56;5.70;99.90
54518;DHT22;40423;53.176;6.002;2023-03-14T07:57:22;5.80;99.90
54518;DHT22;40423;53.176;6.002;2023-03-14T07:59:49;5.80;99.90
54518;DHT22;40423;53.176;6.002;2023-03-14T08:02:15;5.80;99.90
54518;DHT22;40423;53.176;6.002;2023-03-14T08:04:41;5.80;99.90
54518;DHT22;40423;53.176;6.002;2023-03-14T08:07:07;5.80;99.90
54518;DHT22;40423;53.176;6.002;2023-03-14T08:09:32;5.80;99.90
54518;DHT22;40423;53.176;6.002;2023-03-14T08:11:58;5.90;99.90
54518;DHT22;40423;53.176;6.002;2023-03-14T08:14:24;6.00;99.90
54518;DHT22;40423;53.176;6.002;2023-03-14T08:16:50;6.00;99.90
54518;DHT22;40423;53.176;6.002;2023-03-14T08:19:16;6.00;99.90
54518;DHT22;40423;53.176;6.002;2023-03-14T08:21:42;6.10;99.90
54518;DHT22;40423;53.176;6.002;2023-03-14T08:24:08;6.10;99.90
54518;DHT22;40423;53.176;6.002;2023-03-14T08:26:34;6.20;99.90
54518;DHT22;40423;53.176;6.002;2023-03-14T08:29:00;6.20;99.90
54518;DHT22;40423;53.176;6.002;2023-03-14T08:31:26;6.20;99.90
54518;DHT22;40423;53.176;6.002;2023-03-14T08:33:52;6.20;99.90
54518;DHT22;40423;53.176;6.002;2023-03-14T08:36:19;6.30;99.90
54518;DHT22;40423;53.176;6.002;2023-03-14T08:38:45;6.30;99.90
54518;DHT22;40423;53.176;6.002;2023-03-14T08:41:11;6.40;99.90
54518;DHT22;40423;53.176;6.002;2023-03-14T08:43:37;6.40;99.90
54518;DHT22;40423;53.176;6.002;2023-03-14T08:46:03;6.60;99.90
54518;DHT22;40423;53.176;6.002;2023-03-14T08:48:30;6.60;99.90
54518;DHT22;40423;53.176;6.002;2023-03-14T08:50:57;6.70;99.90
54518;DHT22;40423;53.176;6.002;2023-03-14T08:53:22;6.70;99.90
54518;DHT22;40423;53.176;6.002;2023-03-14T08:55:54;6.70;99.90
54518;DHT22;40423;53.176;6.002;2023-03-14T08:58:20;6.70;99.90
54518;DHT22;40423;53.176;6.002;2023-03-14T09:00:48;6.60;99.90
54518;DHT22;40423;53.176;6.002;2023-03-14T09:03:14;6.60;99.90
54518;DHT22;40423;53.176;6.002;2023-03-14T09:05:40;6.50;99.90
54518;DHT22;40423;53.176;6.002;2023-03-14T09:08:06;6.30;99.90
54518;DHT22;40423;53.176;6.002;2023-03-14T09:10:32;6.20;99.90
54518;DHT22;40423;53.176;6.002;2023-03-14T09:12:57;6.10;99.90
54518;DHT22;40423;53.176;6.002;2023-03-14T09:15:24;6.20;99.90
54518;DHT22;40423;53.176;6.002;2023-03-14T09:17:50;6.30;99.90
54518;DHT22;40423;53.176;6.002;2023-03-14T09:20:16;6.30;99.90
54518;DHT22;40423;53.176;6.002;2023-03-14T09:22:41;6.40;99.90
54518;DHT22;40423;53.176;6.002;2023-03-14T09:25:07;6.50;99.90
54518;DHT22;40423;53.176;6.002;2023-03-14T09:27:33;6.50;99.90
54518;DHT22;40423;53.176;6.002;2023-03-14T09:29:59;6.60;99.90
54518;DHT22;40423;53.176;6.002;2023-03-14T09:32:25;6.50;99.90
54518;DHT22;40423;53.176;6.002;2023-03-14T09:34:50;6.50;99.90
54518;DHT22;40423;53.176;6.002;2023-03-14T09:37:16;6.50;99.90
54518;DHT22;40423;53.176;6.002;2023-03-14T09:39:42;6.60;99.90
54518;DHT22;40423;53.176;6.002;2023-03-14T09:42:14;6.60;99.90
54518;DHT22;40423;53.176;6.002;2023-03-14T09:44:53;6.60;99.90
54518;DHT22;40423;53.176;6.002;2023-03-14T09:47:19;6.60;99.90
54518;DHT22;40423;53.176;6.002;2023-03-14T09:49:46;6.60;99.90
54518;DHT22;40423;53.176;6.002;2023-03-14T09:52:15;6.70;99.90
54518;DHT22;40423;53.176;6.002;2023-03-14T09:54:51;6.80;99.90
54518;DHT22;40423;53.176;6.002;2023-03-14T09:57:19;6.80;99.90
54518;DHT22;40423;53.176;6.002;2023-03-14T09:59:46;6.90;99.90
54518;DHT22;40423;53.176;6.002;2023-03-14T10:02:25;7.00;99.90
54518;DHT22;40423;53.176;6.002;2023-03-14T10:04:53;6.90;99.90
54518;DHT22;40423;53.176;6.002;2023-03-14T10:07:31;6.90;99.90
54518;DHT22;40423;53.176;6.002;2023-03-14T10:09:58;6.90;99.90
54518;DHT22;40423;53.176;6.002;2023-03-14T10:12:31;6.80;99.90
54518;DHT22;40423;53.176;6.002;2023-03-14T10:15:03;6.90;99.90
54518;DHT22;40423;53.176;6.002;2023-03-14T10:17:38;6.90;99.90
54518;DHT22;40423;53.176;6.002;2023-03-14T10:20:05;6.90;99.90
54518;DHT22;40423;53.176;6.002;2023-03-14T10:22:31;7.00;99.90
54518;DHT22;40423;53.176;6.002;2023-03-14T10:25:34;7.20;99.90
54518;DHT22;40423;53.176;6.002;2023-03-14T10:28:00;7.30;99.90
54518;DHT22;40423;53.176;6.002;2023-03-14T10:33:31;6.90;99.90
54518;DHT22;40423;53.176;6.002;2023-03-14T10:35:58;6.90;99.90
54518;DHT22;40423;53.176;6.002;2023-03-14T10:38:30;7.00;99.90
54518;DHT22;40423;53.176;6.002;2023-03-14T10:40:57;7.20;99.90
54518;DHT22;40423;53.176;6.002;2023-03-14T10:43:31;7.20;98.80
54518;DHT22;40423;53.176;6.002;2023-03-14T10:46:00;7.30;98.80
54518;DHT22;40423;53.176;6.002;2023-03-14T10:48:38;7.50;97.90
54518;DHT22;40423;53.176;6.002;2023-03-14T10:51:11;7.60;99.20
54518;DHT22;40423;53.176;6.002;2023-03-14T10:53:41;7.50;99.00
54518;DHT22;40423;53.176;6.002;2023-03-14T10:56:11;7.20;98.50
54518;DHT22;40423;53.176;6.002;2023-03-14T10:58:48;7.10;98.80
54518;DHT22;40423;53.176;6.002;2023-03-14T11:15:26;7.70;95.20
54518;DHT22;40423;53.176;6.002;2023-03-14T11:18:19;7.80;96.10
54518;DHT22;40423;53.176;6.002;2023-03-14T11:32:04;7.80;93.70
54518;DHT22;40423;53.176;6.002;2023-03-14T11:34:45;7.90;94.20
54518;DHT22;40423;53.176;6.002;2023-03-14T11:42:36;8.30;94.50
54518;DHT22;40423;53.176;6.002;2023-03-14T11:45:03;8.10;94.30
54518;DHT22;40423;53.176;6.002;2023-03-14T11:47:30;7.90;94.70
54518;DHT22;40423;53.176;6.002;2023-03-14T11:50:16;7.90;95.10
54518;DHT22;40423;53.176;6.002;2023-03-14T11:53:17;7.70;95.40
54518;DHT22;40423;53.176;6.002;2023-03-14T11:55:37;7.60;96.00
54518;DHT22;40423;53.176;6.002;2023-03-14T11:58:29;7.30;97.20
54518;DHT22;40423;53.176;6.002;2023-03-14T12:00:57;7.20;98.20
54518;DHT22;40423;53.176;6.002;2023-03-14T12:03:39;7.10;98.70
54518;DHT22;40423;53.176;6.002;2023-03-14T12:09:12;7.30;97.60
54518;DHT22;40423;53.176;6.002;2023-03-14T12:16:47;7.10;96.40
54518;DHT22;40423;53.176;6.002;2023-03-14T12:24:20;7.60;95.10
54518;DHT22;40423;53.176;6.002;2023-03-14T12:26:59;7.60;95.60
54518;DHT22;40423;53.176;6.002;2023-03-14T12:29:25;7.60;95.60
54518;DHT22;40423;53.176;6.002;2023-03-14T12:32:24;7.70;96.30
54518;DHT22;40423;53.176;6.002;2023-03-14T12:34:50;8.20;96.80
54518;DHT22;40423;53.176;6.002;2023-03-14T12:37:35;8.10;95.10
54518;DHT22;40423;53.176;6.002;2023-03-14T12:42:59;7.90;93.40
54518;DHT22;40423;53.176;6.002;2023-03-14T12:50:37;8.20;92.90
54518;DHT22;40423;53.176;6.002;2023-03-14T12:56:11;8.00;93.00
54518;DHT22;40423;53.176;6.002;2023-03-14T13:01:33;7.60;94.10
54518;DHT22;40423;53.176;6.002;2023-03-14T13:04:07;7.60;93.90
54518;DHT22;40423;53.176;6.002;2023-03-14T13:06:57;7.50;92.70
54518;DHT22;40423;53.176;6.002;2023-03-14T13:11:53;7.50;92.30
54518;DHT22;40423;53.176;6.002;2023-03-14T13:14:20;7.50;92.80
54518;DHT22;40423;53.176;6.002;2023-03-14T13:16:49;7.70;93.00
54518;DHT22;40423;53.176;6.002;2023-03-14T13:19:26;7.90;92.00
54518;DHT22;40423;53.176;6.002;2023-03-14T13:22:04;8.00;92.50
54518;DHT22;40423;53.176;6.002;2023-03-14T13:24:33;8.10;92.60
54518;DHT22;40423;53.176;6.002;2023-03-14T13:27:00;8.20;92.00
54518;DHT22;40423;53.176;6.002;2023-03-14T13:29:28;8.10;91.80
54518;DHT22;40423;53.176;6.002;2023-03-14T13:31:56;8.10;91.50
54518;DHT22;40423;53.176;6.002;2023-03-14T13:34:26;8.10;91.50
54518;DHT22;40423;53.176;6.002;2023-03-14T13:36:54;8.10;91.10
54518;DHT22;40423;53.176;6.002;2023-03-14T13:39:21;8.00;91.50
54518;DHT22;40423;53.176;6.002;2023-03-14T13:41:53;8.00;91.30
54518;DHT22;40423;53.176;6.002;2023-03-14T13:44:35;7.80;91.50
54518;DHT22;40423;53.176;6.002;2023-03-14T13:47:04;7.60;91.40
54518;DHT22;40423;53.176;6.002;2023-03-14T13:49:32;7.30;92.60
54518;DHT22;40423;53.176;6.002;2023-03-14T13:52:01;7.30;93.00
54518;DHT22;40423;53.176;6.002;2023-03-14T13:54:27;7.40;92.60
54518;DHT22;40423;53.176;6.002;2023-03-14T13:57:01;7.30;92.20
54518;DHT22;40423;53.176;6.002;2023-03-14T13:59:32;7.20;92.90
54518;DHT22;40423;53.176;6.002;2023-03-14T14:02:01;7.20;93.60
54518;DHT22;40423;53.176;6.002;2023-03-14T14:04:29;7.30;93.20
54518;DHT22;40423;53.176;6.002;2023-03-14T14:06:59;7.40;91.90
54518;DHT22;40423;53.176;6.002;2023-03-14T14:09:35;7.20;92.00
54518;DHT22;40423;53.176;6.002;2023-03-14T14:15:04;7.10;93.00
54518;DHT22;40423;53.176;6.002;2023-03-14T14:17:39;7.20;93.20
54518;DHT22;40423;53.176;6.002;2023-03-14T14:20:42;7.10;91.90
54518;DHT22;40423;53.176;6.002;2023-03-14T14:23:16;7.10;91.90
54518;DHT22;40423;53.176;6.002;2023-03-14T14:25:43;6.90;91.80
54518;DHT22;40423;53.176;6.002;2023-03-14T14:28:27;6.80;92.20
54518;DHT22;40423;53.176;6.002;2023-03-14T14:31:17;6.70;92.40
54518;DHT22;40423;53.176;6.002;2023-03-14T14:34:03;6.80;93.00
54518;DHT22;40423;53.176;6.002;2023-03-14T14:39:00;7.00;93.40
54518;DHT22;40423;53.176;6.002;2023-03-14T14:41:33;7.00;94.50
54518;DHT22;40423;53.176;6.002;2023-03-14T14:44:01;7.20;94.90
54518;DHT22;40423;53.176;6.002;2023-03-14T14:46:30;7.20;95.20
54518;DHT22;40423;53.176;6.002;2023-03-14T14:49:01;7.10;94.30
54518;DHT22;40423;53.176;6.002;2023-03-14T14:51:33;7.00;94.30
54518;DHT22;40423;53.176;6.002;2023-03-14T14:54:09;7.00;94.70
54518;DHT22;40423;53.176;6.002;2023-03-14T14:56:36;6.70;95.20
54518;DHT22;40423;53.176;6.002;2023-03-14T14:59:03;6.70;95.80
54518;DHT22;40423;53.176;6.002;2023-03-14T15:01:38;6.80;95.70
54518;DHT22;40423;53.176;6.002;2023-03-14T15:04:12;6.90;95.20
54518;DHT22;40423;53.176;6.002;2023-03-14T15:06:40;7.00;96.00
54518;DHT22;40423;53.176;6.002;2023-03-14T15:09:10;7.10;95.10
54518;DHT22;40423;53.176;6.002;2023-03-14T15:11:36;7.00;95.50
54518;DHT22;40423;53.176;6.002;2023-03-14T15:14:02;7.00;96.10
54518;DHT22;40423;53.176;6.002;2023-03-14T15:16:30;7.00;96.30
54518;DHT22;40423;53.176;6.002;2023-03-14T15:18:59;6.90;95.50
54518;DHT22;40423;53.176;6.002;2023-03-14T15:21:26;6.80;94.30
54518;DHT22;40423;53.176;6.002;2023-03-14T15:23:53;6.70;93.50
54518;DHT22;40423;53.176;6.002;2023-03-14T15:26:21;6.70;94.50
54518;DHT22;40423;53.176;6.002;2023-03-14T15:28:47;6.50;94.40
54518;DHT22;40423;53.176;6.002;2023-03-14T15:31:14;6.50;95.00
54518;DHT22;40423;53.176;6.002;2023-03-14T15:33:41;6.50;94.70
54518;DHT22;40423;53.176;6.002;2023-03-14T15:36:23;6.40;94.90
54518;DHT22;40423;53.176;6.002;2023-03-14T15:38:51;6.10;99.50
54518;DHT22;40423;53.176;6.002;2023-03-14T15:41:18;5.30;99.90
54518;DHT22;40423;53.176;6.002;2023-03-14T15:43:44;5.20;99.90
54518;DHT22;40423;53.176;6.002;2023-03-14T15:46:11;5.20;99.90
54518;DHT22;40423;53.176;6.002;2023-03-14T15:48:37;5.20;99.90
54518;DHT22;40423;53.176;6.002;2023-03-14T15:51:03;5.20;99.90
54518;DHT22;40423;53.176;6.002;2023-03-14T15:53:29;5.30;99.90
54518;DHT22;40423;53.176;6.002;2023-03-14T15:55:55;5.50;99.90
54518;DHT22;40423;53.176;6.002;2023-03-14T15:58:20;5.60;99.90
54518;DHT22;40423;53.176;6.002;2023-03-14T16:00:46;5.80;99.90
54518;DHT22;40423;53.176;6.002;2023-03-14T16:03:12;5.90;99.90
54518;DHT22;40423;53.176;6.002;2023-03-14T16:05:39;6.10;99.90
54518;DHT22;40423;53.176;6.002;2023-03-14T16:08:05;6.20;99.90
54518;DHT22;40423;53.176;6.002;2023-03-14T16:10:32;6.20;99.10
54518;DHT22;40423;53.176;6.002;2023-03-14T16:12:58;6.20;98.80
54518;DHT22;40423;53.176;6.002;2023-03-14T16:15:24;6.20;97.00
54518;DHT22;40423;53.176;6.002;2023-03-14T16:17:55;6.20;96.90
54518;DHT22;40423;53.176;6.002;2023-03-14T16:20:22;6.20;97.80
54518;DHT22;40423;53.176;6.002;2023-03-14T16:22:48;6.10;97.40
54518;DHT22;40423;53.176;6.002;2023-03-14T16:25:14;6.00;97.60
54518;DHT22;40423;53.176;6.002;2023-03-14T16:27:40;6.00;97.90
54518;DHT22;40423;53.176;6.002;2023-03-14T16:30:08;6.00;98.20
54518;DHT22;40423;53.176;6.002;2023-03-14T16:32:35;6.00;98.00
54518;DHT22;40423;53.176;6.002;2023-03-14T16:35:01;5.90;98.30
54518;DHT22;40423;53.176;6.002;2023-03-14T16:37:27;5.90;98.60
54518;DHT22;40423;53.176;6.002;2023-03-14T16:39:53;5.90;98.60
54518;DHT22;40423;53.176;6.002;2023-03-14T16:42:20;5.90;99.10
54518;DHT22;40423;53.176;6.002;2023-03-14T16:44:46;5.90;98.60
54518;DHT22;40423;53.176;6.002;2023-03-14T16:47:12;5.80;98.90
54518;DHT22;40423;53.176;6.002;2023-03-14T16:49:38;5.70;99.10
54518;DHT22;40423;53.176;6.002;2023-03-14T16:52:04;5.70;99.20
54518;DHT22;40423;53.176;6.002;2023-03-14T16:54:31;5.60;99.40
54518;DHT22;40423;53.176;6.002;2023-03-14T16:56:56;5.60;99.60
54518;DHT22;40423;53.176;6.002;2023-03-14T16:59:22;5.60;99.90
54518;DHT22;40423;53.176;6.002;2023-03-14T17:01:50;5.50;99.90
54518;DHT22;40423;53.176;6.002;2023-03-14T17:04:16;5.40;99.90
54518;DHT22;40423;53.176;6.002;2023-03-14T17:06:41;5.20;99.90
54518;DHT22;40423;53.176;6.002;2023-03-14T17:09:10;5.10;99.90
54518;DHT22;40423;53.176;6.002;2023-03-14T17:11:36;5.10;99.90
54518;DHT22;40423;53.176;6.002;2023-03-14T17:14:02;5.00;99.90
54518;DHT22;40423;53.176;6.002;2023-03-14T17:16:29;5.00;99.90